Time;durP1;ratioP1;P1;durP2;ratioP2;P2;SDS_P1;SDS_P2;PMS_P1;PMS_P2;Temp;Humidity;BMP_temperature;BMP_pressure;BME280_temperature;BME280_humidity;BME280_pressure;Samples;Min_cycle;Max_cycle;Signal;HPM_P1;HPM_P2
2023/07/21 00:01:12;;;;;;;3.63;3.20;;;;;;;14.82;76.81;97398.97;6178881;28;20263;-58
2023/07/21 00:04:17;;;;;;;2.90;2.57;;;;;;;14.64;77.19;97371.72;6190475;28;20243;-57
2023/07/21 00:07:19;;;;;;;2.50;2.03;;;;;;;14.75;77.50;97391.25;6177785;28;20586;-57
2023/07/21 00:10:22;;;;;;;3.53;2.37;;;;;;;14.73;78.49;97397.94;6196439;28;20240;-57
2023/07/21 00:13:25;;;;;;;3.90;2.97;;;;;;;14.65;78.12;97391.28;6193661;28;20714;-57
2023/07/21 00:16:29;;;;;;;6.63;2.47;;;;;;;14.74;78.60;97397.69;6194366;28;20241;-57
2023/07/21 00:19:31;;;;;;;2.20;1.80;;;;;;;14.80;78.24;97407.31;6185891;28;20281;-57
2023/07/21 00:22:34;;;;;;;2.80;2.17;;;;;;;14.87;78.02;97410.47;6195001;28;20654;-57
2023/07/21 00:25:36;;;;;;;3.63;2.00;;;;;;;14.91;77.96;97398.13;6197735;28;20237;-57
2023/07/21 00:28:39;;;;;;;4.37;2.43;;;;;;;14.98;77.74;97399.72;6194525;28;20229;-58
2023/07/21 00:31:46;;;;;;;3.83;2.63;;;;;;;14.99;77.75;97396.75;6193258;28;20237;-58
2023/07/21 00:34:52;;;;;;;2.93;2.40;;;;;;;14.91;77.63;97381.22;6180841;28;20241;-58
2023/07/21 00:38:00;;;;;;;2.17;1.97;;;;;;;15.04;77.75;97396.72;6191979;28;20326;-58
2023/07/21 00:41:03;;;;;;;4.20;2.80;;;;;;;15.07;77.87;97392.66;6185157;28;20241;-57
2023/07/21 00:44:07;;;;;;;6.60;5.43;;;;;;;15.08;77.76;97389.72;6181063;28;20597;-57
2023/07/21 00:47:10;;;;;;;4.17;3.33;;;;;;;15.09;77.53;97380.59;6190816;28;20241;-57
2023/07/21 00:50:14;;;;;;;3.50;3.10;;;;;;;15.09;77.62;97383.28;6180369;28;20271;-57
2023/07/21 00:53:18;;;;;;;3.27;2.97;;;;;;;15.14;77.54;97382.44;6193140;28;20603;-58
2023/07/21 00:56:20;;;;;;;4.10;3.07;;;;;;;15.14;77.77;97391.28;6195176;28;20331;-57
2023/07/21 00:59:23;;;;;;;3.10;2.80;;;;;;;15.11;78.04;97375.75;6199121;28;20229;-57
2023/07/21 01:02:25;;;;;;;2.93;2.63;;;;;;;15.16;77.88;97391.81;6172211;28;20594;-57
2023/07/21 01:05:32;;;;;;;3.27;2.43;;;;;;;15.00;77.88;97376.88;6193341;28;20236;-57
2023/07/21 01:08:35;;;;;;;2.73;2.37;;;;;;;15.16;78.50;97401.75;6191002;28;20633;-57
2023/07/21 01:11:38;;;;;;;2.73;2.00;;;;;;;15.14;78.49;97393.97;6182599;28;20287;-58
2023/07/21 01:14:40;;;;;;;2.30;2.10;;;;;;;15.11;78.31;97386.47;6179791;28;20241;-58
2023/07/21 01:17:43;;;;;;;3.17;2.83;;;;;;;15.14;77.98;97395.84;6195964;28;20237;-57
2023/07/21 01:20:47;;;;;;;3.90;2.83;;;;;;;15.12;78.15;97400.69;6194205;28;20237;-58
2023/07/21 01:24:15;;;;;;;3.50;2.50;;;;;;;15.12;78.13;97392.63;6191769;28;20264;-58
2023/07/21 01:27:21;;;;;;;4.80;3.67;;;;;;;15.12;77.99;97385.41;6190519;28;20243;-58
2023/07/21 01:30:24;;;;;;;3.53;3.10;;;;;;;14.93;78.31;97376.41;6192867;28;20698;-57
2023/07/21 01:33:28;;;;;;;6.63;3.97;;;;;;;15.00;78.57;97389.50;6198219;28;21332;-58
2023/07/21 01:36:31;;;;;;;3.47;2.50;;;;;;;14.98;78.72;97391.69;6193646;28;20392;-58
2023/07/21 01:39:39;;;;;;;19.77;13.70;;;;;;;14.93;78.87;97381.78;6192984;28;20240;-57
2023/07/21 01:42:43;;;;;;;3.60;2.90;;;;;;;14.81;79.16;97378.59;6190692;28;20237;-56
2023/07/21 01:45:46;;;;;;;15.63;10.90;;;;;;;14.84;79.51;97392.28;6183077;28;20283;-57
2023/07/21 01:48:48;;;;;;;17.27;12.97;;;;;;;14.87;79.92;97396.25;6192831;28;20283;-57
2023/07/21 01:51:56;;;;;;;3.80;2.60;;;;;;;14.93;79.82;97392.50;6193804;28;20224;-58
2023/07/21 01:55:09;;;;;;;3.53;3.10;;;;;;;15.01;79.43;97377.69;6178738;28;20237;-57
2023/07/21 01:58:13;;;;;;;4.43;3.70;;;;;;;15.07;80.05;97373.88;6191717;28;20234;-58
2023/07/21 02:01:17;;;;;;;4.33;2.63;;;;;;;15.07;79.44;97380.06;6195872;28;20324;-58
2023/07/21 02:04:19;;;;;;;10.77;8.53;;;;;;;15.17;79.43;97388.06;6192351;28;20695;-58
2023/07/21 02:07:22;;;;;;;9.07;7.30;;;;;;;15.23;78.91;97386.94;6192797;28;20251;-57
2023/07/21 02:10:24;;;;;;;7.87;5.10;;;;;;;15.15;78.83;97373.31;6179957;28;20240;-58
2023/07/21 02:13:39;;;;;;;3.37;2.63;;;;;;;15.21;78.75;97377.56;6183855;28;20220;-58
2023/07/21 02:16:41;;;;;;;4.70;2.50;;;;;;;15.17;79.00;97371.97;6181890;28;20243;-58
2023/07/21 02:19:44;;;;;;;2.83;2.40;;;;;;;15.25;79.42;97392.03;6177849;28;20287;-58
2023/07/21 02:22:47;;;;;;;3.53;1.93;;;;;;;15.24;79.51;97395.78;6176626;28;20232;-58
2023/07/21 02:25:49;;;;;;;2.90;2.37;;;;;;;15.26;79.64;97398.19;6194852;28;20228;-57
2023/07/21 02:28:52;;;;;;;6.33;4.30;;;;;;;15.30;80.03;97397.34;6190821;28;20240;-58
2023/07/21 02:31:54;;;;;;;4.83;3.53;;;;;;;15.35;79.88;97394.63;6178548;28;20274;-58
2023/07/21 02:34:58;;;;;;;5.13;3.17;;;;;;;15.41;79.81;97398.88;6176442;28;20239;-58
2023/07/21 02:38:05;;;;;;;4.97;3.20;;;;;;;15.48;79.71;97390.53;6186957;28;20227;-58
2023/07/21 02:41:09;;;;;;;7.63;5.90;;;;;;;15.52;79.43;97390.75;6199153;28;20228;-58
2023/07/21 02:44:12;;;;;;;26.13;15.73;;;;;;;15.52;79.61;97385.38;6190756;28;20232;-57
2023/07/21 02:47:18;;;;;;;8.03;5.47;;;;;;;15.53;79.16;97384.31;6192363;28;20705;-58
2023/07/21 02:50:23;;;;;;;3.27;2.97;;;;;;;15.57;79.28;97390.72;6191118;28;20259;-57
2023/07/21 02:53:25;;;;;;;3.47;2.73;;;;;;;15.60;79.17;97376.72;6189016;28;20323;-57
2023/07/21 02:56:34;;;;;;;2.77;2.33;;;;;;;15.64;79.16;97377.81;6170982;28;20237;-58
2023/07/21 02:59:46;;;;;;;2.57;2.33;;;;;;;15.65;79.14;97365.97;6180469;28;20232;-58
2023/07/21 03:02:54;;;;;;;4.00;2.47;;;;;;;15.64;79.22;97367.88;6170789;28;20240;-58
2023/07/21 03:05:57;;;;;;;2.73;2.40;;;;;;;15.63;79.71;97362.75;6176626;28;20229;-57
2023/07/21 03:09:00;;;;;;;2.73;2.20;;;;;;;15.62;79.74;97355.78;6188610;28;20278;-58
2023/07/21 03:12:04;;;;;;;2.20;2.00;;;;;;;15.62;79.97;97367.31;6191234;28;20722;-57
2023/07/21 03:15:30;;;;;;;2.40;2.03;;;;;;;15.62;80.71;97351.22;6181877;28;20228;-57
2023/07/21 03:18:42;;;;;;;3.07;2.47;;;;;;;15.63;80.13;97342.09;6189489;28;20258;-58
2023/07/21 03:21:50;;;;;;;2.87;2.17;;;;;;;15.63;80.45;97349.31;6178399;28;20687;-58
2023/07/21 03:24:53;;;;;;;2.63;2.23;;;;;;;15.58;80.27;97344.00;6182235;28;20232;-58
2023/07/21 03:27:56;;;;;;;3.07;2.07;;;;;;;15.57;80.69;97347.78;6189918;28;20259;-58
2023/07/21 03:30:59;;;;;;;4.57;2.13;;;;;;;15.48;80.42;97328.78;6177040;28;20663;-58
2023/07/21 03:34:06;;;;;;;2.67;2.30;;;;;;;15.57;80.09;97339.72;6179516;28;20260;-58
2023/07/21 03:37:10;;;;;;;3.43;2.37;;;;;;;15.56;80.33;97338.09;6181027;28;20237;-58
2023/07/21 03:40:12;;;;;;;3.30;2.80;;;;;;;15.53;80.47;97339.47;6195536;28;20240;-58
2023/07/21 03:43:15;;;;;;;4.10;2.37;;;;;;;15.54;80.00;97342.97;6177638;28;20272;-57
2023/07/21 03:46:18;;;;;;;4.70;2.27;;;;;;;15.57;80.73;97353.16;6195461;28;20237;-58
2023/07/21 03:49:29;;;;;;;2.93;2.30;;;;;;;15.58;80.28;97352.06;6201844;28;20607;-58
2023/07/21 03:52:41;;;;;;;2.80;2.40;;;;;;;15.58;80.22;97347.47;6180418;28;20233;-58
2023/07/21 03:55:47;;;;;;;2.43;2.20;;;;;;;15.63;80.46;97344.78;6174965;28;20742;-57
2023/07/21 03:58:49;;;;;;;2.57;1.93;;;;;;;15.64;80.31;97335.63;6195388;28;21011;-57
2023/07/21 04:01:52;;;;;;;3.00;2.50;;;;;;;15.67;80.28;97334.28;6188365;28;20714;-57
2023/07/21 04:04:54;;;;;;;3.40;1.90;;;;;;;15.57;79.90;97307.50;6196038;28;20287;-58
2023/07/21 04:07:56;;;;;;;3.60;2.20;;;;;;;15.77;79.83;97341.44;6194424;28;20245;-58
2023/07/21 04:10:58;;;;;;;2.03;1.90;;;;;;;15.84;79.58;97358.81;6186735;28;20229;-57
2023/07/21 04:14:01;;;;;;;2.10;1.90;;;;;;;15.92;79.29;97363.59;6197710;28;20237;-58
2023/07/21 04:17:04;;;;;;;2.07;1.87;;;;;;;15.97;79.25;97358.16;6191842;28;20223;-56
2023/07/21 04:20:09;;;;;;;2.57;1.93;;;;;;;15.86;79.22;97323.59;6194373;28;20244;-57
2023/07/21 04:23:12;;;;;;;2.60;2.10;;;;;;;16.08;79.01;97339.25;6176938;28;20240;-56
2023/07/21 04:26:16;;;;;;;2.23;1.83;;;;;;;16.11;78.91;97327.94;6185247;28;20763;-57
2023/07/21 04:29:18;;;;;;;2.83;2.10;;;;;;;16.10;78.79;97310.97;6194355;28;20236;-58
2023/07/21 04:32:39;;;;;;;2.13;1.90;;;;;;;16.08;79.14;97309.69;6178101;28;20233;-58
2023/07/21 04:35:48;;;;;;;2.90;2.40;;;;;;;16.03;79.57;97299.00;6184093;28;20303;-57
2023/07/21 04:39:00;;;;;;;4.13;2.03;;;;;;;16.12;79.42;97333.00;6175108;28;20236;-58
2023/07/21 04:42:03;;;;;;;2.73;2.10;;;;;;;16.20;78.49;97335.06;6179589;28;20694;-58
2023/07/21 04:45:11;;;;;;;2.60;2.17;;;;;;;16.23;79.17;97339.06;6173963;28;20217;-57
2023/07/21 04:48:20;;;;;;;3.80;2.20;;;;;;;16.23;78.71;97344.44;6185773;28;20212;-56
2023/07/21 04:51:25;;;;;;;3.40;2.13;;;;;;;16.19;78.80;97330.78;6178911;28;20228;-57
2023/07/21 04:54:27;;;;;;;2.20;2.00;;;;;;;16.18;80.15;97331.88;6181103;28;20599;-57
2023/07/21 04:57:31;;;;;;;3.00;2.37;;;;;;;16.15;82.28;97348.53;6184213;28;20235;-57
2023/07/21 05:00:34;;;;;;;4.70;2.70;;;;;;;16.10;82.17;97353.97;6178460;28;20228;-57
2023/07/21 05:03:36;;;;;;;2.67;2.33;;;;;;;16.10;82.78;97355.88;6177762;28;20224;-57
2023/07/21 05:06:39;;;;;;;2.40;2.20;;;;;;;16.13;82.49;97356.09;6191971;28;20225;-58
2023/07/21 05:09:42;;;;;;;2.17;1.90;;;;;;;16.17;82.78;97353.66;6191845;28;20317;-57
2023/07/21 05:12:47;;;;;;;2.73;2.30;;;;;;;16.19;83.21;97367.59;6192734;28;20224;-57
2023/07/21 05:16:02;;;;;;;2.33;2.10;;;;;;;15.96;84.11;97348.50;6175023;28;20335;-58
2023/07/21 05:19:34;;;;;;;4.20;2.40;;;;;;;16.16;84.10;97390.47;6179243;28;20233;-58
2023/07/21 05:23:16;;;;;;;3.47;2.27;;;;;;;16.21;84.54;97381.56;6162199;28;20233;-56
2023/07/21 05:26:35;;;;;;;2.50;2.30;;;;;;;16.27;84.80;97388.47;6151545;28;20234;-53
2023/07/21 05:29:51;;;;;;;2.10;2.00;;;;;;;16.32;84.93;97375.00;6180469;28;20315;-55
2023/07/21 05:32:56;;;;;;;2.23;2.00;;;;;;;16.39;85.01;97369.25;6190703;28;20220;-56
2023/07/21 05:36:07;;;;;;;2.30;2.10;;;;;;;16.47;84.86;97369.44;6178543;28;21034;-48
2023/07/21 05:39:10;;;;;;;2.37;2.17;;;;;;;16.49;84.95;97371.81;6194434;28;20224;-55
2023/07/21 05:42:13;;;;;;;2.50;2.30;;;;;;;16.48;85.04;97362.97;6192737;28;20221;-55
2023/07/21 05:45:16;;;;;;;2.87;2.50;;;;;;;16.48;85.06;97354.91;6181991;28;20228;-55
2023/07/21 05:48:20;;;;;;;3.50;2.13;;;;;;;16.42;85.39;97331.06;6173638;28;20307;-55
2023/07/21 05:51:23;;;;;;;3.23;2.27;;;;;;;16.45;85.63;97308.94;6179381;28;20738;-55
2023/07/21 05:54:33;;;;;;;2.70;2.40;;;;;;;16.54;85.60;97301.84;6177451;28;20603;-56
2023/07/21 05:57:35;;;;;;;2.50;2.30;;;;;;;16.51;86.29;97283.63;6192069;28;20228;-55
2023/07/21 06:00:41;;;;;;;2.63;2.03;;;;;;;16.59;86.90;97317.13;6178504;28;20228;-56
2023/07/21 06:03:44;;;;;;;3.30;2.50;;;;;;;16.61;86.97;97331.09;6177105;28;20235;-55
2023/07/21 06:06:46;;;;;;;2.70;2.50;;;;;;;16.62;87.04;97332.69;6166445;28;20270;-56
2023/07/21 06:10:06;;;;;;;2.77;2.30;;;;;;;16.66;86.75;97339.88;6195316;28;20680;-55
2023/07/21 06:13:13;;;;;;;3.87;2.67;;;;;;;16.69;86.34;97341.97;6175099;28;20232;-55
2023/07/21 06:16:44;;;;;;;2.90;2.37;;;;;;;16.80;86.30;97358.00;6157502;28;20244;-55
2023/07/21 06:19:47;;;;;;;5.00;2.70;;;;;;;16.86;86.26;97359.56;6191384;28;20224;-55
2023/07/21 06:22:51;;;;;;;2.47;2.27;;;;;;;16.90;85.91;97358.69;6172710;28;20216;-55
2023/07/21 06:25:55;;;;;;;3.37;2.40;;;;;;;16.94;86.05;97365.06;6192626;28;20260;-56
2023/07/21 06:28:57;;;;;;;3.20;2.47;;;;;;;16.98;86.22;97365.31;6174632;28;20229;-54
2023/07/21 06:32:00;;;;;;;3.50;2.87;;;;;;;17.02;86.39;97375.19;6191285;28;20229;-55
2023/07/21 06:35:09;;;;;;;3.07;2.67;;;;;;;17.06;86.41;97369.25;6188997;28;20304;-55
2023/07/21 06:38:20;;;;;;;3.07;2.20;;;;;;;17.07;86.31;97350.09;6190445;28;20323;-54
2023/07/21 06:41:43;;;;;;;2.80;2.30;;;;;;;17.11;86.72;97353.81;6192459;28;20233;-54
2023/07/21 06:45:09;;;;;;;2.70;2.37;;;;;;;17.20;86.82;97348.59;6190988;28;20236;-53
2023/07/21 06:48:30;;;;;;;2.63;2.43;;;;;;;17.26;86.84;97344.72;6186017;28;20240;-55
2023/07/21 06:51:39;;;;;;;2.37;2.17;;;;;;;17.27;86.61;97336.34;6186999;28;20225;-55
2023/07/21 06:54:41;;;;;;;3.70;2.77;;;;;;;17.34;86.79;97335.97;6190768;28;20225;-55
2023/07/21 06:57:43;;;;;;;3.20;2.20;;;;;;;17.38;86.96;97330.78;6188977;28;20268;-54
2023/07/21 07:00:46;;;;;;;2.30;2.00;;;;;;;17.43;86.93;97325.31;6190362;28;20646;-56
2023/07/21 07:03:49;;;;;;;3.27;2.57;;;;;;;17.48;86.59;97330.63;6191242;28;20239;-54
2023/07/21 07:06:53;;;;;;;2.00;1.87;;;;;;;17.52;86.20;97328.94;6192606;28;20243;-55
2023/07/21 07:09:55;;;;;;;2.43;2.20;;;;;;;17.58;85.58;97335.03;6156348;28;20237;-55
2023/07/21 07:12:58;;;;;;;2.70;2.40;;;;;;;17.63;85.64;97326.88;6187689;28;20322;-52
2023/07/21 07:16:00;;;;;;;3.03;2.20;;;;;;;17.71;85.17;97332.38;6177526;28;20232;-54
2023/07/21 07:19:04;;;;;;;3.37;2.40;;;;;;;17.78;84.87;97332.84;6190972;28;20244;-55
2023/07/21 07:22:09;;;;;;;5.67;2.70;;;;;;;17.83;84.25;97345.41;6189709;28;20799;-54
2023/07/21 07:25:14;;;;;;;2.37;2.17;;;;;;;17.92;84.03;97334.75;6171964;28;20244;-55
2023/07/21 07:28:19;;;;;;;2.00;1.90;;;;;;;17.95;83.23;97334.16;6172944;28;20255;-54
2023/07/21 07:31:21;;;;;;;3.17;2.60;;;;;;;17.96;81.96;97335.75;6189650;28;20248;-55
2023/07/21 07:34:24;;;;;;;2.57;2.20;;;;;;;17.92;81.77;97330.16;6182460;28;20379;-54
2023/07/21 07:37:27;;;;;;;2.20;2.00;;;;;;;18.05;81.45;97350.13;6190114;28;20792;-55
2023/07/21 07:40:32;;;;;;;2.00;1.77;;;;;;;18.12;81.21;97338.94;6190421;28;20228;-54
2023/07/21 07:43:36;;;;;;;4.03;2.40;;;;;;;18.19;80.52;97321.28;6186122;28;20236;-55
2023/07/21 07:46:38;;;;;;;2.87;2.17;;;;;;;18.30;80.00;97329.97;6190235;28;20233;-55
2023/07/21 07:49:40;;;;;;;2.40;2.20;;;;;;;18.42;80.13;97321.38;6185754;28;20236;-56
2023/07/21 07:52:43;;;;;;;5.23;2.77;;;;;;;18.43;79.60;97301.41;6191272;28;20746;-55
2023/07/21 07:55:45;;;;;;;4.10;2.30;;;;;;;18.54;80.11;97318.97;6190892;28;20806;-54
2023/07/21 07:58:48;;;;;;;2.63;2.43;;;;;;;18.63;79.28;97314.47;6175631;28;20323;-55
2023/07/21 08:01:50;;;;;;;2.80;2.40;;;;;;;18.68;77.88;97297.38;6187260;28;20603;-55
2023/07/21 08:04:52;;;;;;;4.83;2.70;;;;;;;18.72;78.54;97287.59;6190154;28;20247;-55
2023/07/21 08:07:58;;;;;;;3.83;2.33;;;;;;;18.71;78.07;97275.97;6190955;28;20225;-53
2023/07/21 08:11:01;;;;;;;3.87;2.63;;;;;;;18.75;76.66;97276.97;6177397;28;20272;-51
2023/07/21 08:14:04;;;;;;;2.80;2.33;;;;;;;18.63;76.66;97274.00;6190878;28;20312;-54
2023/07/21 08:17:08;;;;;;;4.10;2.80;;;;;;;18.82;76.17;97284.69;6185904;28;20799;-54
2023/07/21 08:20:12;;;;;;;3.47;2.23;;;;;;;18.84;75.74;97278.97;6192781;28;20229;-55
2023/07/21 08:23:14;;;;;;;3.97;2.60;;;;;;;18.75;75.36;97271.59;6194350;28;20741;-55
2023/07/21 08:26:29;;;;;;;5.53;2.67;;;;;;;18.71;75.82;97267.88;6195813;28;20264;-54
2023/07/21 08:29:32;;;;;;;4.03;2.57;;;;;;;18.78;77.21;97289.88;6192839;28;20387;-54
2023/07/21 08:32:39;;;;;;;3.30;2.13;;;;;;;18.83;77.20;97282.78;6194298;28;20319;-55
2023/07/21 08:35:43;;;;;;;2.63;2.07;;;;;;;18.83;76.90;97280.06;6196154;28;20346;-55
2023/07/21 08:38:45;;;;;;;3.23;2.67;;;;;;;18.70;77.16;97263.59;6190924;28;20248;-55
2023/07/21 08:41:50;;;;;;;4.67;2.73;;;;;;;18.80;76.70;97273.38;6193569;28;20615;-55
2023/07/21 08:44:54;;;;;;;2.30;2.10;;;;;;;18.81;76.88;97275.75;6192050;28;20247;-55
2023/07/21 08:47:56;;;;;;;2.70;2.50;;;;;;;18.85;76.90;97280.56;6192733;28;20234;-54
2023/07/21 08:50:59;;;;;;;3.10;2.80;;;;;;;18.88;77.18;97272.66;6193499;28;20339;-55
2023/07/21 08:54:01;;;;;;;3.20;2.73;;;;;;;18.91;78.06;97274.72;6196403;28;20232;-54
2023/07/21 08:57:04;;;;;;;4.80;2.93;;;;;;;18.92;78.29;97281.75;6191782;28;20253;-54
2023/07/21 09:00:08;;;;;;;4.27;3.10;;;;;;;18.95;77.87;97283.00;6196351;28;20232;-54
2023/07/21 09:03:11;;;;;;;3.77;2.70;;;;;;;19.05;75.90;97285.47;6194170;28;20217;-58
2023/07/21 09:06:14;;;;;;;4.20;3.00;;;;;;;19.22;73.88;97296.41;6194703;28;20329;-58
2023/07/21 09:09:18;;;;;;;3.03;2.73;;;;;;;19.43;72.59;97290.50;6187413;28;20574;-58
2023/07/21 09:12:20;;;;;;;3.97;2.57;;;;;;;19.58;71.20;97285.50;6191912;28;20229;-58
2023/07/21 09:15:22;;;;;;;4.93;2.77;;;;;;;19.78;72.28;97286.91;6188387;28;20225;-58
2023/07/21 09:18:25;;;;;;;4.97;2.80;;;;;;;19.93;71.75;97284.91;6198332;28;20264;-58
2023/07/21 09:21:28;;;;;;;4.97;3.20;;;;;;;20.14;70.44;97279.72;6180200;28;20240;-58
2023/07/21 09:24:30;;;;;;;3.70;3.03;;;;;;;20.41;68.83;97276.78;6190555;28;20599;-58
2023/07/21 09:27:35;;;;;;;4.33;3.20;;;;;;;20.65;67.87;97268.28;6190470;28;20225;-58
2023/07/21 09:30:49;;;;;;;5.07;2.90;;;;;;;20.86;66.33;97269.22;6190064;28;20217;-58
2023/07/21 09:33:52;;;;;;;5.60;3.27;;;;;;;20.96;66.15;97265.41;6192916;28;20229;-58
2023/07/21 09:36:54;;;;;;;4.33;2.60;;;;;;;21.04;66.85;97277.38;6189423;28;20236;-58
2023/07/21 09:39:59;;;;;;;3.20;2.57;;;;;;;21.06;66.57;97270.50;6190665;28;20217;-57
2023/07/21 09:43:02;;;;;;;3.37;3.00;;;;;;;21.06;66.86;97275.13;6195287;28;20671;-58
2023/07/21 09:46:07;;;;;;;2.70;2.50;;;;;;;21.07;67.36;97280.22;6191941;28;20220;-58
2023/07/21 09:49:13;;;;;;;3.33;3.03;;;;;;;21.02;66.73;97269.53;6178668;28;20312;-58
2023/07/21 09:52:17;;;;;;;3.30;2.40;;;;;;;21.03;67.13;97268.44;6194777;28;20269;-58
2023/07/21 09:55:22;;;;;;;3.67;3.03;;;;;;;20.99;66.71;97258.56;6174543;28;20603;-58
2023/07/21 09:58:26;;;;;;;3.23;2.90;;;;;;;21.13;67.74;97268.13;6189345;28;20241;-54
2023/07/21 10:01:29;;;;;;;3.37;2.90;;;;;;;21.20;67.90;97269.53;6194856;28;20237;-54
2023/07/21 10:04:37;;;;;;;3.97;3.30;;;;;;;21.23;67.72;97268.88;6192588;28;20231;-55
2023/07/21 10:07:47;;;;;;;3.50;3.10;;;;;;;21.28;67.97;97282.25;6193506;28;20357;-55
2023/07/21 10:10:50;;;;;;;5.07;2.93;;;;;;;21.31;67.65;97271.63;6192628;28;20233;-54
2023/07/21 10:13:53;;;;;;;3.00;2.70;;;;;;;21.31;67.65;97260.78;6190872;28;20224;-53
2023/07/21 10:16:56;;;;;;;6.03;2.80;;;;;;;21.37;67.76;97264.91;6191940;28;20268;-55
2023/07/21 10:20:08;;;;;;;2.80;2.60;;;;;;;21.42;68.27;97257.72;6192590;28;20223;-55
2023/07/21 10:23:13;;;;;;;3.57;2.47;;;;;;;21.45;68.49;97257.09;6194613;28;20237;-55
2023/07/21 10:26:19;;;;;;;3.83;2.67;;;;;;;21.33;67.71;97231.47;6193396;28;20235;-54
2023/07/21 10:29:21;;;;;;;2.93;2.57;;;;;;;21.42;68.38;97244.97;6189297;28;20231;-54
2023/07/21 10:32:24;;;;;;;3.77;2.77;;;;;;;21.45;68.82;97248.97;6190525;28;20232;-54
2023/07/21 10:35:34;;;;;;;5.77;2.90;;;;;;;21.43;69.18;97238.44;6193770;28;20236;-55
2023/07/21 10:38:40;;;;;;;3.17;2.67;;;;;;;21.53;68.63;97232.69;6187002;28;20673;-54
2023/07/21 10:41:44;;;;;;;3.50;3.10;;;;;;;21.57;68.30;97224.66;6188583;28;20233;-55
2023/07/21 10:44:47;;;;;;;4.33;2.90;;;;;;;21.57;67.95;97230.09;6196156;28;20228;-55
2023/07/21 10:47:50;;;;;;;2.90;2.70;;;;;;;21.62;67.88;97227.22;6181475;28;20374;-55
2023/07/21 10:50:58;;;;;;;4.30;2.63;;;;;;;21.56;68.43;97213.03;6191346;28;20239;-55
2023/07/21 10:54:02;;;;;;;3.33;2.77;;;;;;;21.74;68.58;97238.19;6190665;28;20225;-46
2023/07/21 10:57:05;;;;;;;3.17;2.60;;;;;;;21.80;67.99;97236.88;6191229;28;20241;-55
2023/07/21 11:00:09;;;;;;;2.93;2.60;;;;;;;21.83;68.75;97236.22;6194641;28;20216;-53
2023/07/21 11:03:11;;;;;;;3.80;2.83;;;;;;;21.92;69.10;97247.06;6190013;28;20227;-53
2023/07/21 11:06:15;;;;;;;4.63;2.63;;;;;;;21.94;69.14;97235.88;6186707;28;20247;-51
2023/07/21 11:09:19;;;;;;;2.67;2.47;;;;;;;21.99;68.75;97236.47;6186488;28;20217;-53
2023/07/21 11:12:22;;;;;;;4.17;2.67;;;;;;;22.03;69.22;97239.34;6190468;28;20349;-53
2023/07/21 11:15:25;;;;;;;2.60;2.40;;;;;;;21.98;69.56;97213.19;6183329;28;20232;-54
2023/07/21 11:18:28;;;;;;;4.27;2.40;;;;;;;22.09;70.51;97222.53;6190218;28;20299;-53
2023/07/21 11:21:31;;;;;;;2.40;2.20;;;;;;;22.15;71.65;97207.69;6192970;28;20235;-52
2023/07/21 11:24:34;;;;;;;2.42;2.20;;;;;;;22.26;73.20;97210.81;6191665;28;20228;-53
2023/07/21 11:27:45;;;;;;;3.85;2.50;;;;;;;22.43;72.26;97196.34;6189365;28;20606;-53
2023/07/21 11:30:50;;;;;;;3.43;2.50;;;;;;;22.57;71.65;97193.38;6191956;28;20225;-52
2023/07/21 11:33:52;;;;;;;2.20;2.00;;;;;;;22.69;70.61;97193.41;6187610;28;20601;-53
2023/07/21 11:36:58;;;;;;;2.47;2.20;;;;;;;22.72;70.87;97186.53;6195334;28;20229;-54
2023/07/21 11:40:07;;;;;;;2.27;2.07;;;;;;;22.80;70.23;97181.00;6191962;28;20601;-53
2023/07/21 11:43:10;;;;;;;2.03;1.88;;;;;;;22.83;68.75;97174.91;6191004;28;20228;-53
2023/07/21 11:46:26;;;;;;;2.83;2.15;;;;;;;22.83;68.99;97166.78;6186288;28;20845;-52
2023/07/21 11:49:28;;;;;;;2.42;2.17;;;;;;;23.04;66.31;97136.06;6190408;28;20614;-53
2023/07/21 11:52:33;;;;;;;2.30;2.03;;;;;;;23.30;65.32;97122.19;6193879;28;20584;-53
2023/07/21 11:55:36;;;;;;;2.67;2.10;;;;;;;23.46;62.13;97111.47;6192686;28;20299;-54
2023/07/21 11:58:38;;;;;;;2.53;2.05;;;;;;;23.64;61.45;97127.25;6177880;28;20363;-54
2023/07/21 12:01:41;;;;;;;2.33;2.00;;;;;;;23.93;58.18;97137.06;6193715;28;20236;-53
2023/07/21 12:04:44;;;;;;;2.45;1.90;;;;;;;24.10;59.23;97144.19;6195405;28;20378;-53
2023/07/21 12:07:46;;;;;;;3.95;2.47;;;;;;;24.28;53.77;97157.53;6193208;28;20726;-53
2023/07/21 12:10:49;;;;;;;2.17;1.90;;;;;;;24.34;54.69;97159.69;6196493;28;20460;-53
2023/07/21 12:13:51;;;;;;;3.50;1.90;;;;;;;24.30;53.96;97149.81;6196561;28;20292;-52
2023/07/21 12:16:57;;;;;;;2.78;2.15;;;;;;;24.40;54.06;97152.09;6192100;28;20236;-53
2023/07/21 12:20:01;;;;;;;2.42;1.70;;;;;;;24.42;53.12;97160.69;6194301;28;20236;-51
2023/07/21 12:23:07;;;;;;;2.22;1.88;;;;;;;24.39;53.76;97159.47;6177219;28;20274;-53
2023/07/21 12:26:10;;;;;;;2.40;1.80;;;;;;;24.36;54.90;97154.72;6192379;28;20234;-50
2023/07/21 12:29:15;;;;;;;2.17;1.98;;;;;;;24.34;55.60;97151.53;6193772;28;20320;-51
2023/07/21 12:32:38;;;;;;;3.05;2.00;;;;;;;24.33;56.23;97149.13;6194012;28;20415;-53
2023/07/21 12:35:41;;;;;;;2.17;1.98;;;;;;;24.31;55.73;97143.25;6197888;28;20286;-53
2023/07/21 12:38:44;;;;;;;2.60;2.13;;;;;;;24.37;55.63;97147.31;6194179;28;20303;-53
2023/07/21 12:41:47;;;;;;;3.17;2.08;;;;;;;24.46;55.02;97137.09;6195456;28;20240;-53
2023/07/21 12:44:49;;;;;;;4.28;2.08;;;;;;;24.44;54.36;97125.78;6194221;28;20242;-52
2023/07/21 12:47:51;;;;;;;3.25;2.20;;;;;;;24.43;55.03;97122.25;6191208;28;20237;-53
2023/07/21 12:50:54;;;;;;;2.17;1.98;;;;;;;24.36;51.98;97124.75;6192772;28;20328;-52
2023/07/21 12:54:02;;;;;;;2.17;1.90;;;;;;;24.27;53.08;97115.13;6184340;28;20237;-52
2023/07/21 12:57:12;;;;;;;4.00;2.10;;;;;;;24.43;54.03;97135.06;6188823;28;20328;-49
2023/07/21 13:00:18;;;;;;;2.45;2.25;;;;;;;24.35;55.19;97114.19;6198164;28;20308;-51
2023/07/21 13:03:24;;;;;;;2.67;2.20;;;;;;;24.47;55.72;97116.09;6196773;28;20635;-53
2023/07/21 13:06:29;;;;;;;3.08;2.38;;;;;;;24.50;53.51;97104.53;6189640;28;20233;-52
2023/07/21 13:09:36;;;;;;;4.03;2.20;;;;;;;24.77;52.06;97120.06;6193017;28;20320;-51
2023/07/21 13:12:38;;;;;;;3.40;2.30;;;;;;;24.81;52.52;97120.16;6195426;28;20220;-53
2023/07/21 13:15:41;;;;;;;5.10;2.00;;;;;;;24.91;52.21;97131.34;6191721;28;20223;-53
2023/07/21 13:18:46;;;;;;;2.00;1.80;;;;;;;24.92;53.38;97132.91;6196049;28;20243;-52
2023/07/21 13:21:49;;;;;;;2.50;2.30;;;;;;;24.91;51.51;97136.00;6196759;28;20232;-52
2023/07/21 13:24:52;;;;;;;2.92;2.15;;;;;;;24.84;51.32;97131.16;6193174;28;20686;-52
2023/07/21 13:27:54;;;;;;;2.65;2.25;;;;;;;25.01;52.92;97151.84;6191550;28;20232;-54
2023/07/21 13:30:57;;;;;;;4.03;2.40;;;;;;;24.77;53.25;97141.84;6190624;28;20327;-53
2023/07/21 13:33:59;;;;;;;2.65;2.10;;;;;;;24.85;53.20;97145.56;6192080;28;20646;-54
2023/07/21 13:37:02;;;;;;;3.05;2.13;;;;;;;24.70;54.54;97123.38;6196100;28;20362;-53
2023/07/21 13:40:05;;;;;;;2.75;2.15;;;;;;;24.83;53.78;97137.75;6192795;28;20768;-53
2023/07/21 13:43:08;;;;;;;2.40;2.20;;;;;;;24.81;52.60;97137.28;6188248;28;20229;-53
2023/07/21 13:46:10;;;;;;;2.08;1.80;;;;;;;24.80;53.15;97126.75;6193014;28;20232;-54
2023/07/21 13:49:13;;;;;;;2.28;2.08;;;;;;;24.70;54.58;97133.50;6193840;28;20589;-52
2023/07/21 13:52:16;;;;;;;3.15;2.17;;;;;;;24.50;54.55;97131.75;6191506;28;20575;-53
2023/07/21 13:55:18;;;;;;;7.72;2.38;;;;;;;24.27;54.33;97101.50;6193187;28;20240;-53
2023/07/21 13:58:21;;;;;;;3.92;2.10;;;;;;;24.40;54.76;97112.03;6190072;28;20245;-53
2023/07/21 14:01:24;;;;;;;3.65;2.13;;;;;;;24.46;56.18;97115.31;6195410;28;20284;-53
2023/07/21 14:04:27;;;;;;;2.53;2.28;;;;;;;24.47;56.52;97122.34;6192549;28;20243;-54
2023/07/21 14:07:30;;;;;;;2.40;2.20;;;;;;;24.39;57.34;97121.34;6185768;28;20240;-53
2023/07/21 14:10:32;;;;;;;2.35;2.05;;;;;;;24.42;57.97;97136.19;6194970;28;20351;-52
2023/07/21 14:13:34;;;;;;;2.53;2.20;;;;;;;24.26;58.53;97117.03;6193327;28;20746;-53
2023/07/21 14:16:37;;;;;;;3.65;2.92;;;;;;;24.29;58.68;97124.53;6188165;28;20701;-53
2023/07/21 14:19:40;;;;;;;3.38;2.45;;;;;;;24.19;58.79;97122.28;6191408;28;20252;-51
2023/07/21 14:22:43;;;;;;;2.90;2.40;;;;;;;24.15;59.63;97118.66;6189945;28;20236;-53
2023/07/21 14:25:46;;;;;;;6.05;2.60;;;;;;;24.13;60.27;97113.56;6175206;28;20668;-52
2023/07/21 14:28:49;;;;;;;3.22;2.50;;;;;;;24.06;60.10;97113.34;6173615;28;20225;-52
2023/07/21 14:31:51;;;;;;;4.70;2.60;;;;;;;23.91;60.55;97079.47;6190913;28;20721;-52